Time;durP1;ratioP1;P1;durP2;ratioP2;P2;SDS_P1;SDS_P2;PMS_P1;PMS_P2;Temp;Humidity;BMP_temperature;BMP_pressure;BME280_temperature;BME280_humidity;BME280_pressure;Samples;Min_cycle;Max_cycle;Signal;HPM_P1;HPM_P2
2023/10/04 00:01:41;;;;;;;8.07;1.20;;;9.30;99.90;;;8.52;100.00;102695.16;4187516;28;20029;-76
2023/10/04 00:03:46;;;;;;;5.50;1.20;;;9.30;99.90;;;8.52;100.00;102678.53;4199767;28;20036;-76
2023/10/04 00:05:48;;;;;;;6.07;1.35;;;9.30;99.90;;;8.54;100.00;102666.16;4183566;28;20124;-76
2023/10/04 00:07:55;;;;;;;4.55;1.00;;;9.30;99.90;;;8.54;100.00;102664.34;4183419;28;20028;-76
2023/10/04 00:09:56;;;;;;;5.13;1.00;;;9.30;99.90;;;8.55;100.00;102663.41;4183596;28;20103;-76
2023/10/04 00:11:58;;;;;;;3.42;1.35;;;9.30;99.90;;;8.51;100.00;102669.78;4185167;28;20511;-76
2023/10/04 00:13:59;;;;;;;10.32;1.77;;;9.30;99.90;;;8.46;100.00;102666.59;4183343;28;20025;-75
2023/10/04 00:16:03;;;;;;;3.75;1.13;;;9.30;99.90;;;8.45;100.00;102667.56;4183252;28;20031;-75
2023/10/04 00:18:04;;;;;;;4.05;1.33;;;9.20;99.90;;;8.37;100.00;102661.91;4187559;28;20047;-75
2023/10/04 00:20:08;;;;;;;5.50;1.10;;;9.20;99.90;;;8.37;100.00;102669.81;4196126;28;20020;-75
2023/10/04 00:22:09;;;;;;;4.45;1.30;;;9.20;99.90;;;8.33;100.00;102669.13;4202838;28;20387;-76
2023/10/04 00:24:10;;;;;;;4.40;1.27;;;9.10;99.90;;;8.28;100.00;102662.47;4187872;28;20029;-76
2023/10/04 00:26:11;;;;;;;2.75;1.25;;;9.10;99.90;;;8.30;100.00;102665.88;4187605;28;20021;-76
2023/10/04 00:28:12;;;;;;;4.25;1.17;;;9.10;99.90;;;8.32;100.00;102669.25;4186414;28;20586;-75
2023/10/04 00:30:14;;;;;;;6.85;1.48;;;9.10;99.90;;;8.30;100.00;102661.44;4187586;28;20440;-75
2023/10/04 00:32:15;;;;;;;3.05;1.23;;;9.10;99.90;;;8.26;100.00;102653.81;4194695;28;20151;-75
2023/10/04 00:34:16;;;;;;;2.65;1.48;;;9.00;99.90;;;8.32;100.00;102666.63;4186034;28;20424;-75
2023/10/04 00:36:21;;;;;;;4.70;1.30;;;9.00;99.90;;;8.32;100.00;102679.78;4191284;28;20392;-75
2023/10/04 00:38:24;;;;;;;5.75;1.20;;;9.10;99.90;;;8.28;100.00;102673.84;4187375;28;20411;-75
2023/10/04 00:40:33;;;;;;;5.45;1.30;;;9.00;99.90;;;8.27;100.00;102673.94;4187247;28;20429;-75
2023/10/04 00:42:35;;;;;;;4.30;1.65;;;9.00;99.90;;;8.29;100.00;102674.69;4191823;28;20029;-75
2023/10/04 00:44:36;;;;;;;5.72;1.30;;;9.00;99.90;;;8.30;100.00;102673.78;4198736;28;20074;-76
2023/10/04 00:46:41;;;;;;;4.72;1.23;;;9.00;99.90;;;8.32;100.00;102675.38;4202511;28;20017;-76
2023/10/04 00:48:43;;;;;;;4.40;1.33;;;9.00;99.90;;;8.29;100.00;102669.44;4203579;28;20074;-76
2023/10/04 00:50:45;;;;;;;6.32;1.42;;;9.00;99.90;;;8.25;100.00;102662.63;4203754;28;20076;-76
2023/10/04 00:53:17;;;;;;;4.63;1.60;;;9.00;99.90;;;8.26;100.00;102665.19;4201811;28;20028;-76
2023/10/04 00:55:21;;;;;;;4.18;1.40;;;9.00;99.90;;;8.26;100.00;102669.59;4186016;28;20048;-76
2023/10/04 00:57:22;;;;;;;5.57;1.23;;;9.00;99.90;;;8.24;100.00;102674.13;4186926;28;20061;-76
2023/10/04 00:59:23;;;;;;;4.60;1.77;;;9.00;99.90;;;8.20;100.00;102668.19;4185840;28;20028;-76
2023/10/04 01:01:24;;;;;;;2.88;1.15;;;9.00;99.90;;;8.16;100.00;102673.72;4186548;28;20076;-76
2023/10/04 01:03:30;;;;;;;4.40;1.13;;;8.90;99.90;;;8.08;100.00;102668.94;4202146;28;20488;-75
2023/10/04 01:05:32;;;;;;;2.47;1.10;;;8.90;99.90;;;8.03;100.00;102657.00;4185830;28;20033;-75
2023/10/04 01:07:35;;;;;;;4.40;1.52;;;8.80;99.90;;;8.07;100.00;102658.50;4185633;28;20103;-75
2023/10/04 01:09:36;;;;;;;4.55;1.00;;;8.80;99.90;;;8.04;100.00;102658.69;4186924;28;20104;-76
2023/10/04 01:11:46;;;;;;;7.60;1.23;;;8.80;99.90;;;8.02;100.00;102665.81;4202062;28;20025;-76
2023/10/04 01:13:47;;;;;;;7.85;1.77;;;8.80;99.90;;;7.97;100.00;102673.16;4191117;28;20116;-76
2023/10/04 01:15:55;;;;;;;3.75;1.33;;;8.80;99.90;;;7.96;100.00;102676.72;4186607;28;20021;-75
2023/10/04 01:18:01;;;;;;;3.38;0.80;;;8.70;99.90;;;7.88;100.00;102676.31;4186866;28;20033;-76
2023/10/04 01:20:02;;;;;;;5.43;1.00;;;8.70;99.90;;;7.85;100.00;102673.88;4186550;28;20488;-76
2023/10/04 01:22:05;;;;;;;7.30;1.15;;;8.60;99.90;;;7.79;100.00;102670.66;4194228;28;20510;-76
2023/10/04 01:24:09;;;;;;;4.40;1.50;;;8.60;99.90;;;7.79;100.00;102665.41;4186177;28;20025;-76
2023/10/04 01:26:09;;;;;;;6.00;1.40;;;8.60;99.90;;;7.81;100.00;102667.97;4186700;28;20090;-76
2023/10/04 01:28:13;;;;;;;3.33;1.20;;;8.60;99.90;;;7.82;100.00;102672.28;4185887;28;20025;-76
2023/10/04 01:30:14;;;;;;;5.88;1.20;;;8.60;99.90;;;7.82;100.00;102671.44;4185464;28;20112;-76
2023/10/04 01:32:17;;;;;;;2.67;1.02;;;8.60;99.90;;;7.83;100.00;102666.06;4193834;28;20492;-76
2023/10/04 01:34:17;;;;;;;3.00;1.17;;;8.60;99.90;;;7.80;100.00;102666.25;4184965;28;20052;-76
2023/10/04 01:36:18;;;;;;;5.28;1.58;;;8.60;99.90;;;7.78;100.00;102663.75;4190254;28;20091;-76
2023/10/04 01:38:24;;;;;;;5.43;1.20;;;8.60;99.90;;;7.72;100.00;102664.09;4186495;28;20021;-76
2023/10/04 01:40:32;;;;;;;2.88;1.13;;;8.50;99.90;;;7.70;100.00;102665.13;4188453;28;20047;-76
2023/10/04 01:42:33;;;;;;;3.60;1.35;;;8.50;99.90;;;7.69;100.00;102669.53;4201991;28;20016;-76
2023/10/04 01:44:33;;;;;;;3.65;1.67;;;8.50;99.90;;;7.65;100.00;102657.50;4201727;28;20099;-76
2023/10/04 01:46:36;;;;;;;6.68;1.70;;;8.40;99.90;;;7.65;100.00;102659.28;4202817;28;20029;-76
2023/10/04 01:48:37;;;;;;;6.00;1.67;;;8.40;99.90;;;7.65;100.00;102657.50;4202592;28;20025;-76
2023/10/04 01:50:38;;;;;;;3.55;1.88;;;8.40;99.90;;;7.63;100.00;102654.13;4201704;28;20031;-76
2023/10/04 01:52:39;;;;;;;4.03;1.30;;;8.40;99.90;;;7.64;100.00;102660.25;4201427;28;20415;-76
2023/10/04 01:54:40;;;;;;;4.47;1.10;;;8.40;99.90;;;7.61;100.00;102655.16;4201426;28;20028;-76
2023/10/04 01:56:41;;;;;;;5.03;1.55;;;8.40;99.90;;;7.59;100.00;102641.25;4202927;28;20111;-75
2023/10/04 01:58:42;;;;;;;3.80;1.25;;;8.40;99.90;;;7.57;100.00;102645.75;4202532;28;20090;-75
2023/10/04 02:00:42;;;;;;;3.25;1.15;;;8.40;99.90;;;7.54;100.00;102633.66;4191865;28;20033;-75
2023/10/04 02:02:44;;;;;;;4.38;1.20;;;8.40;99.90;;;7.53;100.00;102634.59;4185918;28;20036;-75
2023/10/04 02:04:52;;;;;;;2.70;0.80;;;8.30;99.90;;;7.51;100.00;102643.50;4185798;28;20032;-75
2023/10/04 02:06:52;;;;;;;8.52;1.75;;;8.30;99.90;;;7.46;100.00;102642.94;4186007;28;20471;-75
2023/10/04 02:08:53;;;;;;;4.72;1.10;;;8.30;99.90;;;7.44;100.00;102647.41;4184783;28;20029;-75
2023/10/04 02:10:56;;;;;;;4.32;1.27;;;8.20;99.90;;;7.43;100.00;102641.34;4185823;28;20044;-75
2023/10/04 02:12:57;;;;;;;5.95;1.40;;;8.20;99.90;;;7.42;100.00;102638.78;4185953;28;20036;-75
2023/10/04 02:14:58;;;;;;;7.93;1.63;;;8.20;99.90;;;7.43;100.00;102636.09;4185018;28;20033;-75
2023/10/04 02:17:00;;;;;;;6.38;1.60;;;8.20;99.90;;;7.45;100.00;102642.09;4185840;28;20029;-75
2023/10/04 02:19:01;;;;;;;5.30;1.40;;;8.20;99.90;;;7.48;100.00;102644.53;4185447;28;20021;-75
2023/10/04 02:21:02;;;;;;;3.67;0.95;;;8.30;99.90;;;7.50;100.00;102655.78;4184564;28;20067;-75
2023/10/04 02:23:07;;;;;;;8.90;1.67;;;8.30;99.90;;;7.49;100.00;102648.00;4185716;28;20468;-75
2023/10/04 02:25:13;;;;;;;3.67;1.02;;;8.30;99.90;;;7.49;100.00;102642.75;4194326;28;20032;-75
2023/10/04 02:27:17;;;;;;;7.13;1.65;;;8.30;99.90;;;7.51;100.00;102657.47;4200920;28;20120;-75
2023/10/04 02:29:18;;;;;;;9.93;1.67;;;8.30;99.90;;;7.48;100.00;102648.94;4202250;28;20040;-75
2023/10/04 02:31:22;;;;;;;6.80;1.42;;;8.30;99.90;;;7.50;100.00;102652.31;4200583;28;20562;-75
2023/10/04 02:33:27;;;;;;;7.63;1.77;;;8.30;99.90;;;7.46;100.00;102654.28;4188268;28;20056;-75
2023/10/04 02:35:34;;;;;;;3.45;1.45;;;8.30;99.90;;;7.44;100.00;102652.66;4189029;28;20110;-75
2023/10/04 02:37:35;;;;;;;2.33;1.05;;;8.20;99.90;;;7.39;100.00;102650.31;4185480;28;20029;-75
2023/10/04 02:39:37;;;;;;;2.50;1.15;;;8.20;99.90;;;7.37;100.00;102651.34;4185441;28;20052;-75
2023/10/04 02:41:40;;;;;;;4.97;1.20;;;8.20;99.90;;;7.34;100.00;102648.91;4184302;28;20032;-75
2023/10/04 02:43:42;;;;;;;3.67;1.20;;;8.10;99.90;;;7.33;100.00;102652.44;4184433;28;20156;-75
2023/10/04 02:45:43;;;;;;;3.97;1.50;;;8.10;99.90;;;7.31;100.00;102644.66;4192859;28;20032;-75
2023/10/04 02:47:48;;;;;;;5.43;1.52;;;8.10;99.90;;;7.30;100.00;102645.59;4200952;28;20107;-75
2023/10/04 02:49:49;;;;;;;4.63;1.30;;;8.10;99.90;;;7.29;100.00;102653.56;4201659;28;20025;-75
2023/10/04 02:51:50;;;;;;;4.15;1.35;;;8.10;99.90;;;7.27;100.00;102651.03;4201956;28;20462;-75
2023/10/04 02:53:50;;;;;;;4.93;1.90;;;8.10;99.90;;;7.29;100.00;102641.28;4201970;28;20447;-75
2023/10/04 02:55:55;;;;;;;6.78;1.38;;;8.10;99.90;;;7.28;100.00;102644.00;4201866;28;20029;-75
2023/10/04 02:57:56;;;;;;;7.88;1.40;;;8.10;99.90;;;7.26;100.00;102638.81;4201736;28;20088;-75
2023/10/04 02:59:58;;;;;;;5.38;1.23;;;8.10;99.90;;;7.23;100.00;102633.75;4197541;28;20036;-75
2023/10/04 03:02:00;;;;;;;3.88;1.33;;;8.10;99.90;;;7.23;100.00;102644.25;4184169;28;20396;-75
2023/10/04 03:04:08;;;;;;;7.03;1.40;;;8.00;99.90;;;7.21;100.00;102638.25;4184939;28;20054;-75
2023/10/04 03:06:11;;;;;;;5.32;1.90;;;8.00;99.90;;;7.22;100.00;102632.06;4185255;28;20477;-75
2023/10/04 03:08:12;;;;;;;7.85;1.88;;;8.00;99.90;;;7.25;100.00;102629.28;4184114;28;20110;-75
2023/10/04 03:10:23;;;;;;;4.25;1.20;;;8.00;99.90;;;7.26;100.00;102638.81;4185219;28;20108;-75
2023/10/04 03:12:24;;;;;;;6.22;1.52;;;8.10;99.90;;;7.25;100.00;102631.91;4183995;28;20025;-75
2023/10/04 03:14:25;;;;;;;7.85;1.95;;;8.10;99.90;;;7.25;100.00;102645.03;4184033;28;20527;-75
2023/10/04 03:16:25;;;;;;;5.05;1.20;;;8.00;99.90;;;7.23;100.00;102633.75;4185213;28;20036;-75
2023/10/04 03:18:26;;;;;;;2.83;1.20;;;8.00;99.90;;;7.22;100.00;102632.06;4185042;28;20028;-75
2023/10/04 03:20:30;;;;;;;6.15;1.85;;;8.00;99.90;;;7.20;100.00;102618.19;4185075;28;20040;-75
2023/10/04 03:22:31;;;;;;;6.05;1.20;;;8.00;99.90;;;7.16;100.00;102624.56;4188109;28;20040;-76
2023/10/04 03:24:32;;;;;;;3.83;1.65;;;8.00;99.90;;;7.17;100.00;102634.09;4200328;28;20025;-76
2023/10/04 03:26:33;;;;;;;7.13;1.40;;;8.00;99.90;;;7.12;100.00;102630.91;4201637;28;20050;-76
2023/10/04 03:28:36;;;;;;;6.32;1.35;;;7.90;99.90;;;7.06;100.00;102628.63;4201629;28;20527;-76
2023/10/04 03:30:37;;;;;;;4.93;1.17;;;7.90;99.90;;;7.06;100.00;102631.25;4200274;28;20036;-76
2023/10/04 03:32:38;;;;;;;3.97;1.80;;;7.90;99.90;;;7.06;100.00;102632.09;4200214;28;20074;-75
2023/10/04 03:34:40;;;;;;;3.35;1.20;;;7.90;99.90;;;7.07;100.00;102630.31;4201338;28;20028;-76
2023/10/04 03:36:46;;;;;;;2.90;1.30;;;7.90;99.90;;;7.08;100.00;102622.34;4188218;28;20025;-76
2023/10/04 03:38:49;;;;;;;2.40;1.13;;;7.90;99.90;;;7.07;100.00;102623.31;4184876;28;20017;-76
2023/10/04 03:40:51;;;;;;;2.85;1.25;;;7.90;99.90;;;7.04;100.00;102617.38;4184690;28;20416;-76
2023/10/04 03:42:52;;;;;;;5.75;1.40;;;7.90;99.90;;;7.04;100.00;102626.09;4196430;28;20071;-76
2023/10/04 03:44:54;;;;;;;6.47;1.90;;;7.80;99.90;;;7.00;100.00;102627.19;4187479;28;20024;-76
2023/10/04 03:46:55;;;;;;;2.55;1.35;;;7.80;99.90;;;6.98;100.00;102620.34;4184934;28;20028;-76
2023/10/04 03:48:56;;;;;;;5.38;1.10;;;7.80;99.90;;;6.96;100.00;102616.97;4183565;28;20033;-75
2023/10/04 03:50:59;;;;;;;2.72;0.95;;;7.80;99.90;;;6.94;100.00;102617.06;4184889;28;20021;-75
2023/10/04 03:53:00;;;;;;;3.13;1.10;;;7.80;99.90;;;6.93;100.00;102614.53;4198123;28;20102;-75
2023/10/04 03:55:01;;;;;;;2.72;1.13;;;7.70;99.90;;;6.92;100.00;102613.69;4188122;28;20037;-75
2023/10/04 03:57:06;;;;;;;7.45;1.45;;;7.70;99.90;;;6.89;100.00;102613.00;4187975;28;20036;-75
2023/10/04 03:59:08;;;;;;;4.03;1.33;;;7.70;99.90;;;6.89;100.00;102613.84;4186846;28;20017;-75
2023/10/04 04:01:10;;;;;;;4.32;1.63;;;7.70;99.90;;;6.89;100.00;102621.72;4187577;28;20104;-75
2023/10/04 04:03:11;;;;;;;5.15;1.38;;;7.70;99.90;;;6.91;100.00;102622.47;4187694;28;20047;-75
2023/10/04 04:05:14;;;;;;;5.20;1.30;;;7.70;99.90;;;6.92;100.00;102618.06;4186576;28;20029;-75
2023/10/04 04:07:15;;;;;;;3.80;1.08;;;7.70;99.90;;;6.94;100.00;102626.69;4203012;28;20021;-75
2023/10/04 04:09:15;;;;;;;2.65;1.48;;;7.70;99.90;;;6.93;100.00;102631.09;4184322;28;20032;-75
2023/10/04 04:11:16;;;;;;;3.63;1.88;;;7.70;99.90;;;6.92;100.00;102625.94;4198671;28;20021;-75
2023/10/04 04:13:18;;;;;;;8.45;1.67;;;7.80;99.90;;;6.92;100.00;102629.41;4186700;28;20028;-75
2023/10/04 04:15:19;;;;;;;7.07;1.58;;;7.70;99.90;;;6.92;100.00;102624.19;4169955;28;20083;-75
2023/10/04 04:17:23;;;;;;;3.35;1.30;;;7.70;99.90;;;6.94;100.00;102626.69;4186305;28;20444;-75
2023/10/04 04:19:26;;;;;;;3.97;1.67;;;7.70;99.90;;;6.96;100.00;102627.47;4186128;28;20051;-75
2023/10/04 04:21:29;;;;;;;3.38;1.33;;;7.80;99.90;;;6.98;100.00;102628.22;4188795;28;20021;-75
2023/10/04 04:23:31;;;;;;;5.57;1.25;;;7.80;99.90;;;7.05;100.00;102629.53;4202991;28;20040;-75
2023/10/04 04:25:33;;;;;;;3.85;1.50;;;7.80;99.90;;;7.07;100.00;102619.84;4202730;28;20021;-75
2023/10/04 04:27:34;;;;;;;3.72;1.40;;;7.80;99.90;;;7.09;100.00;102616.19;4204057;28;20135;-75
2023/10/04 04:29:35;;;;;;;3.50;1.50;;;7.90;99.90;;;7.12;100.00;102616.00;4204151;28;20454;-75
2023/10/04 04:31:36;;;;;;;4.90;1.35;;;7.90;99.90;;;7.14;100.00;102615.91;4204110;28;20046;-75
2023/10/04 04:33:37;;;;;;;5.25;2.00;;;7.90;99.90;;;7.13;100.00;102606.34;4203820;28;20032;-75
2023/10/04 04:35:48;;;;;;;5.35;1.60;;;7.90;99.90;;;7.15;100.00;102613.19;4202794;28;20028;-75
2023/10/04 04:37:55;;;;;;;5.15;1.33;;;8.00;99.90;;;7.13;100.00;102612.47;4187320;28;20032;-76
2023/10/04 04:39:56;;;;;;;1.90;1.20;;;8.00;99.90;;;7.14;100.00;102614.13;4186045;28;20516;-76
2023/10/04 04:41:58;;;;;;;6.63;1.73;;;7.90;99.90;;;7.15;100.00;102612.34;4187365;28;20028;-76
2023/10/04 04:44:07;;;;;;;4.75;1.25;;;7.90;99.90;;;7.15;100.00;102609.72;4193513;28;20021;-76
2023/10/04 04:46:15;;;;;;;5.90;1.73;;;7.90;99.90;;;7.15;100.00;102609.72;4204009;28;20051;-75
2023/10/04 04:48:19;;;;;;;3.42;1.50;;;8.00;99.90;;;7.13;100.00;102608.97;4202304;28;20062;-75
2023/10/04 04:50:22;;;;;;;5.68;2.08;;;7.90;99.90;;;7.14;100.00;102615.91;4202640;28;20395;-75
2023/10/04 04:52:23;;;;;;;2.00;1.50;;;7.90;99.90;;;7.11;100.00;102614.31;4202665;28;20032;-75
2023/10/04 04:54:24;;;;;;;4.18;1.30;;;7.90;99.90;;;7.13;100.00;102616.84;4203732;28;20058;-75
2023/10/04 04:56:25;;;;;;;4.72;1.30;;;7.90;99.90;;;7.08;100.00;102613.63;4199623;28;20021;-75
2023/10/04 04:58:28;;;;;;;4.13;1.27;;;7.90;99.90;;;7.06;100.00;102618.97;4187210;28;20024;-75
2023/10/04 05:00:33;;;;;;;5.78;1.42;;;7.90;99.90;;;7.07;100.00;102611.97;4187135;28;20516;-75
2023/10/04 05:02:34;;;;;;;3.90;1.38;;;7.90;99.90;;;7.06;100.00;102616.34;4185623;28;20416;-75
2023/10/04 05:04:36;;;;;;;5.93;1.80;;;7.90;99.90;;;7.05;100.00;102613.81;4185809;28;20033;-75
2023/10/04 05:06:38;;;;;;;4.03;1.65;;;7.90;99.90;;;7.04;100.00;102620.00;4187040;28;20553;-75
2023/10/04 05:08:40;;;;;;;4.15;1.92;;;7.90;99.90;;;7.00;100.00;102613.22;4185809;28;20427;-75
2023/10/04 05:10:44;;;;;;;6.70;1.70;;;7.90;99.90;;;7.04;100.00;102620.00;4199140;28;20028;-75
2023/10/04 05:12:46;;;;;;;6.25;1.58;;;7.90;99.90;;;7.03;100.00;102626.19;4186906;28;20063;-75
2023/10/04 05:14:47;;;;;;;4.07;1.58;;;7.90;99.90;;;7.02;100.00;102620.06;4187028;28;20041;-75
2023/10/04 05:16:49;;;;;;;3.33;1.30;;;7.80;99.90;;;7.05;100.00;102630.41;4186753;28;20503;-75
2023/10/04 05:18:50;;;;;;;4.70;1.55;;;7.80;99.90;;;7.03;100.00;102620.94;4186508;28;20059;-75
2023/10/04 05:20:55;;;;;;;5.00;1.60;;;7.80;99.90;;;7.03;100.00;102626.19;4185424;28;20116;-75
2023/10/04 05:23:00;;;;;;;6.43;1.42;;;7.90;99.90;;;7.02;100.00;102616.59;4186651;28;20056;-75
2023/10/04 05:25:00;;;;;;;;;;;7.80;99.90;;;6.98;100.00;102621.19;4202360;28;20028;-75
2023/10/04 05:27:02;;;;;;;6.88;1.75;;;7.80;99.90;;;7.00;100.00;102621.94;4186521;28;19930;-75
2023/10/04 05:29:03;;;;;;;4.75;1.60;;;7.80;99.90;;;7.02;100.00;102619.22;4186786;28;20519;-75
2023/10/04 05:31:05;;;;;;;4.68;1.40;;;7.80;99.90;;;7.01;100.00;102610.53;4186630;28;20032;-75
2023/10/04 05:33:10;;;;;;;3.03;1.67;;;7.80;99.90;;;7.02;100.00;102609.59;4185222;28;20482;-75
2023/10/04 05:35:14;;;;;;;2.95;1.30;;;7.80;99.90;;;7.01;100.00;102601.81;4190306;28;20027;-75
2023/10/04 05:37:15;;;;;;;3.85;1.40;;;7.80;99.90;;;7.00;100.00;102615.84;4193589;28;20116;-75
2023/10/04 05:39:17;;;;;;;5.47;1.33;;;7.80;99.90;;;6.99;100.00;102608.94;4188843;28;20106;-75
2023/10/04 05:41:19;;;;;;;3.25;1.30;;;7.80;99.90;;;6.98;100.00;102613.34;4186538;28;20111;-75
2023/10/04 05:43:20;;;;;;;3.53;1.27;;;7.80;99.90;;;6.98;100.00;102612.47;4187296;28;20477;-75
2023/10/04 05:45:21;;;;;;;8.20;1.90;;;7.80;99.90;;;6.99;100.00;102608.94;4201756;28;20032;-75
2023/10/04 05:47:22;;;;;;;4.07;1.38;;;7.80;99.90;;;6.99;100.00;102604.50;4195116;28;20084;-75
2023/10/04 05:49:23;;;;;;;2.90;1.80;;;7.80;99.90;;;7.02;100.00;102608.72;4185968;28;20017;-75
2023/10/04 05:51:24;;;;;;;3.58;1.30;;;7.80;99.90;;;7.04;100.00;102612.97;4186146;28;20451;-75
2023/10/04 05:53:26;;;;;;;4.50;1.48;;;7.80;99.90;;;7.09;100.00;102610.09;4186158;28;20029;-75
2023/10/04 05:55:27;;;;;;;3.08;1.10;;;7.90;99.90;;;7.11;100.00;102602.97;4186221;28;20091;-76
2023/10/04 05:57:28;;;;;;;4.75;1.25;;;7.90;99.90;;;7.15;100.00;102607.09;4184989;28;20036;-76
2023/10/04 05:59:31;;;;;;;3.05;1.23;;;7.90;99.90;;;7.16;100.00;102606.19;4184816;28;20055;-75
2023/10/04 06:01:34;;;;;;;4.63;1.52;;;8.00;99.90;;;7.18;100.00;102609.56;4201264;28;20024;-75
2023/10/04 06:03:35;;;;;;;5.50;1.60;;;8.00;99.90;;;7.20;100.00;102619.03;4185787;28;20027;-75
2023/10/04 06:05:37;;;;;;;4.15;1.55;;;8.00;99.90;;;7.21;100.00;102617.25;4186817;28;20047;-75
2023/10/04 06:07:38;;;;;;;5.57;1.60;;;8.00;99.90;;;7.22;100.00;102608.47;4190343;28;20047;-75
2023/10/04 06:09:42;;;;;;;3.40;1.55;;;8.00;99.90;;;7.26;100.00;102625.69;4184833;28;20025;-75
2023/10/04 06:11:43;;;;;;;4.05;1.60;;;8.10;99.90;;;7.26;100.00;102623.06;4185996;28;20025;-75
2023/10/04 06:13:44;;;;;;;6.60;2.10;;;8.10;99.90;;;7.28;100.00;102623.84;4184706;28;20068;-75
2023/10/04 06:15:48;;;;;;;7.68;2.15;;;8.10;99.90;;;7.32;100.00;102627.16;4212110;28;20024;-75
2023/10/04 06:17:50;;;;;;;4.28;1.30;;;8.10;99.90;;;7.34;100.00;102635.78;4184639;28;20117;-75
2023/10/04 06:19:54;;;;;;;4.20;1.88;;;8.10;99.90;;;7.34;100.00;102625.25;4185598;28;20029;-75
2023/10/04 06:21:55;;;;;;;3.22;1.65;;;8.20;99.90;;;7.36;100.00;102629.50;4185603;28;20052;-75
2023/10/04 06:23:56;;;;;;;2.67;1.60;;;8.20;99.90;;;7.38;100.00;102627.59;4185633;28;20036;-75
2023/10/04 06:25:56;;;;;;;5.50;1.98;;;8.20;99.90;;;7.39;100.00;102629.31;4194454;28;20017;-75
2023/10/04 06:28:00;;;;;;;7.15;1.63;;;8.20;99.90;;;7.37;100.00;102631.19;4185691;28;20397;-75
2023/10/04 06:30:01;;;;;;;7.05;1.50;;;8.20;99.90;;;7.33;100.00;102641.94;4184450;28;20025;-75
2023/10/04 06:32:03;;;;;;;5.25;1.73;;;8.10;99.90;;;7.29;100.00;102633.41;4185733;28;20039;-75
2023/10/04 06:34:04;;;;;;;4.32;1.50;;;8.10;99.90;;;7.27;100.00;102632.66;4184228;28;20052;-75
2023/10/04 06:36:05;;;;;;;3.75;0.98;;;8.10;99.90;;;7.28;100.00;102625.63;4190618;28;20108;-75
2023/10/04 06:38:08;;;;;;;2.42;1.10;;;8.10;99.90;;;7.31;100.00;102636.78;4167689;28;20032;-75
2023/10/04 06:40:16;;;;;;;6.50;1.30;;;8.10;99.90;;;7.29;100.00;102638.66;4200593;28;20047;-76
2023/10/04 06:42:16;;;;;;;5.38;1.50;;;8.10;99.90;;;7.30;100.00;102644.75;4185715;28;20460;-76
2023/10/04 06:44:18;;;;;;;6.22;1.60;;;8.10;99.90;;;7.27;100.00;102656.28;4194308;28;20024;-75
2023/10/04 06:46:19;;;;;;;3.67;1.30;;;8.10;99.90;;;7.25;100.00;102658.16;4200960;28;20028;-74
2023/10/04 06:48:20;;;;;;;2.72;1.52;;;8.10;99.90;;;7.24;100.00;102666.94;4200378;28;20054;-74
2023/10/04 06:50:28;;;;;;;5.20;1.40;;;8.00;99.90;;;7.23;100.00;102660.00;4199318;28;20411;-76
2023/10/04 06:52:29;;;;;;;5.10;1.80;;;8.00;99.90;;;7.25;100.00;102647.66;4200184;28;20028;-74
2023/10/04 06:54:30;;;;;;;4.18;1.63;;;8.10;99.90;;;7.30;100.00;102648.22;4199982;28;20462;-75
2023/10/04 06:56:30;;;;;;;2.53;1.20;;;8.10;99.90;;;7.36;100.00;102639.13;4186560;28;20442;-75
2023/10/04 06:58:31;;;;;;;3.40;1.40;;;8.10;99.90;;;7.40;100.00;102638.88;4184839;28;20043;-77
2023/10/04 07:00:36;;;;;;;3.28;1.55;;;8.20;99.90;;;7.49;100.00;102650.63;4183701;28;20028;-74
2023/10/04 07:02:37;;;;;;;2.95;1.42;;;8.20;99.90;;;7.55;100.00;102648.50;4184703;28;20021;-73
2023/10/04 07:04:38;;;;;;;3.85;1.90;;;8.30;99.90;;;7.59;100.00;102642.09;4186976;28;20115;-74
2023/10/04 07:06:39;;;;;;;5.68;1.40;;;8.40;99.90;;;7.69;100.00;102645.91;4198755;28;20508;-74
2023/10/04 07:08:40;;;;;;;5.53;1.65;;;8.40;99.90;;;7.73;100.00;102634.28;4199699;28;20621;-75
2023/10/04 07:10:42;;;;;;;4.25;2.03;;;8.50;99.90;;;7.85;100.00;102644.97;4199695;28;20133;-75
2023/10/04 07:12:46;;;;;;;5.53;1.30;;;8.60;99.90;;;7.97;100.00;102650.34;4216176;28;20561;-75
2023/10/04 07:14:47;;;;;;;2.33;1.40;;;8.70;99.90;;;8.10;100.00;102658.31;4194185;28;20067;-75
2023/10/04 07:16:48;;;;;;;3.13;1.20;;;8.80;99.90;;;8.19;100.00;102655.13;4184496;28;20416;-75
2023/10/04 07:18:49;;;;;;;4.30;1.35;;;8.90;99.90;;;8.32;100.00;102661.38;4182893;28;20021;-75
2023/10/04 07:20:51;;;;;;;4.78;1.27;;;9.00;99.90;;;8.44;100.00;102665.88;4184289;28;20044;-73
2023/10/04 07:22:58;;;;;;;6.70;1.67;;;9.10;99.90;;;8.54;100.00;102656.44;4183177;28;20048;-73
2023/10/04 07:24:59;;;;;;;3.35;1.45;;;9.20;99.90;;;8.63;100.00;102658.50;4184527;28;20060;-73
2023/10/04 07:27:02;;;;;;;6.35;1.98;;;9.30;99.90;;;8.75;100.00;102659.53;4198082;28;20028;-73
2023/10/04 07:29:03;;;;;;;5.35;1.77;;;9.50;99.90;;;8.83;100.00;102659.88;4187785;28;20028;-74
2023/10/04 07:31:04;;;;;;;3.63;1.80;;;9.50;99.90;;;8.90;100.00;102656.75;4187762;28;20412;-75
2023/10/04 07:33:05;;;;;;;3.47;1.70;;;9.70;99.90;;;9.01;100.00;102668.38;4187614;28;20072;-75
2023/10/04 07:35:06;;;;;;;4.43;1.90;;;9.70;99.90;;;9.08;100.00;102670.50;4173681;28;20029;-75
2023/10/04 07:37:08;;;;;;;4.90;2.42;;;9.80;99.90;;;9.19;100.00;102678.56;4215187;28;20021;-75
2023/10/04 07:39:09;;;;;;;6.53;1.40;;;9.90;99.90;;;9.34;100.00;102682.84;4188176;28;20025;-75
2023/10/04 07:41:10;;;;;;;2.45;1.23;;;10.00;99.90;;;9.49;100.00;102680.97;4188330;28;20114;-75
2023/10/04 07:43:11;;;;;;;4.07;1.77;;;10.20;99.90;;;9.64;100.00;102685.22;4203017;28;20546;-75
2023/10/04 07:45:14;;;;;;;6.80;2.17;;;10.30;99.90;;;9.77;100.00;102680.81;4204910;28;20033;-75
2023/10/04 07:47:15;;;;;;;4.13;1.45;;;10.40;99.90;;;9.85;100.00;102685.56;4203345;28;20021;-76
2023/10/04 07:49:16;;;;;;;5.57;1.92;;;10.50;99.90;;;9.94;100.00;102698.97;4203318;28;20028;-76
2023/10/04 07:51:17;;;;;;;10.60;2.10;;;10.60;99.90;;;9.98;100.00;102697.81;4204532;28;20059;-75
2023/10/04 07:53:21;;;;;;;6.00;2.53;;;10.70;99.90;;;10.04;100.00;102707.09;4186714;28;20029;-77
2023/10/04 07:55:25;;;;;;;6.18;2.53;;;10.80;99.90;;;10.10;100.00;102700.53;4204515;28;20480;-77
2023/10/04 07:57:27;;;;;;;;;;;10.90;99.90;;;10.16;100.00;102693.09;4197092;28;20032;-76
2023/10/04 07:59:28;;;;;;;2.97;1.73;;;11.00;99.90;;;10.26;100.00;102685.41;4202903;28;19908;-77
2023/10/04 08:01:28;;;;;;;3.17;1.63;;;11.10;99.90;;;10.39;100.00;102680.97;4204139;28;20029;-75
2023/10/04 08:03:29;;;;;;;6.28;1.58;;;11.20;99.90;;;10.50;100.00;102676.63;4203867;28;20391;-78
2023/10/04 08:05:34;;;;;;;3.70;1.70;;;11.30;99.90;;;10.66;100.00;102680.81;4203974;28;20028;-76
2023/10/04 08:07:36;;;;;;;3.50;1.50;;;11.40;99.90;;;10.78;100.00;102680.75;4188500;28;20050;-77
2023/10/04 08:09:38;;;;;;;6.15;1.83;;;11.50;99.90;;;10.95;100.00;102688.31;4186161;28;20405;-76
2023/10/04 08:11:39;;;;;;;7.85;1.70;;;11.60;99.90;;;11.05;100.00;102694.59;4202648;28;20060;-76
2023/10/04 08:13:40;;;;;;;6.55;2.42;;;11.70;99.90;;;11.07;100.00;102707.72;4202530;28;20067;-76
2023/10/04 08:15:41;;;;;;;4.40;1.52;;;11.80;99.90;;;11.11;100.00;102715.28;4188426;28;20036;-75
2023/10/04 08:17:48;;;;;;;6.22;1.48;;;11.80;99.90;;;11.18;100.00;102702.47;4187212;28;20025;-75
2023/10/04 08:19:48;;;;;;;6.82;2.17;;;11.90;99.90;;;11.23;100.00;102704.81;4186004;28;20037;-76
2023/10/04 08:21:49;;;;;;;6.90;2.20;;;12.00;99.90;;;11.26;100.00;102701.94;4202223;28;20028;-78
2023/10/04 08:23:50;;;;;;;3.90;1.52;;;12.00;99.90;;;11.28;100.00;102706.16;4187052;28;20087;-78
2023/10/04 08:25:51;;;;;;;4.25;2.00;;;12.10;99.90;;;11.32;100.00;102701.50;4196506;28;20098;-76
2023/10/04 08:27:53;;;;;;;6.38;1.75;;;12.10;99.90;;;11.39;100.00;102698.25;4201316;28;20025;-77
2023/10/04 08:29:54;;;;;;;4.30;1.45;;;12.10;99.90;;;11.48;100.00;102700.22;4201159;28;20034;-77
2023/10/04 08:31:56;;;;;;;6.03;2.05;;;12.20;99.90;;;11.53;100.00;102700.72;4201411;28;20036;-77
2023/10/04 08:33:56;;;;;;;4.28;1.40;;;12.30;99.90;;;11.60;100.00;102693.19;4200388;28;20037;-75